createdAt,value
2022-09-01T00:00:49.413Z,99028.38
2022-09-01T00:02:27.065Z,99030.06
2022-09-01T00:04:03.221Z,99031.75
2022-09-01T00:05:36.483Z,99032.63
2022-09-01T00:07:12.779Z,99041.69
2022-09-01T00:08:46.211Z,99044.13
2022-09-01T00:10:19.447Z,99046.91
2022-09-01T00:11:55.408Z,99053.41
2022-09-01T00:13:27.734Z,99050.84
2022-09-01T00:15:01.145Z,99056.22
2022-09-01T00:16:34.882Z,99043.28
2022-09-01T00:18:08.174Z,99038.38
2022-09-01T00:19:41.595Z,99034.72
2022-09-01T00:21:14.195Z,99040.09
2022-09-01T00:22:49.398Z,99034.72
2022-09-01T00:24:23.227Z,99033.13
2022-09-01T00:25:56.844Z,99043.75
2022-09-01T00:27:30.912Z,99044.00
2022-09-01T00:29:04.921Z,99038.91
2022-09-01T00:30:38.251Z,99036.69
2022-09-01T00:32:11.758Z,99032.56
2022-09-01T00:33:44.281Z,99035.94
2022-09-01T00:35:20.318Z,99034.00
2022-09-01T00:36:53.712Z,99041.09
2022-09-01T00:38:29.214Z,99044.50
2022-09-01T00:40:02.706Z,99040.84
2022-09-01T00:41:39.361Z,99041.59
2022-09-01T00:43:14.959Z,99039.25
2022-09-01T00:44:48.620Z,99032.31
2022-09-01T00:46:23.355Z,99037.16
2022-09-01T00:48:05.933Z,99044.28
2022-09-01T00:49:43.169Z,99023.25
2022-09-01T00:51:16.783Z,99036.94
2022-09-01T00:52:53.371Z,99035.47
2022-09-01T00:54:32.386Z,99041.09
2022-09-01T00:56:06.901Z,99035.13
2022-09-01T00:57:41.484Z,99033.78
2022-09-01T00:59:17.202Z,99035.13
2022-09-01T01:00:53.232Z,99032.56
2022-09-01T01:02:27.122Z,99027.41
2022-09-01T01:04:02.428Z,99029.97
2022-09-01T01:05:40.408Z,99028.63
2022-09-01T01:07:14.392Z,99036.69
2022-09-01T01:08:59.148Z,99040.38
2022-09-01T01:10:37.900Z,99029.88
2022-09-01T01:12:18.603Z,99029.88
2022-09-01T01:13:52.893Z,99036.34
2022-09-01T01:15:26.199Z,99028.41
2022-09-01T01:17:00.278Z,99030.09
2022-09-01T01:18:33.613Z,99037.41
2022-09-01T01:20:27.041Z,99028.00
2022-09-01T01:22:19.000Z,99035.34
2022-09-01T01:23:58.553Z,99031.53
2022-09-01T01:25:34.743Z,99033.72
2022-09-01T01:27:08.028Z,99031.63
2022-09-01T01:28:44.439Z,99025.66
2022-09-01T01:30:20.854Z,99018.56
2022-09-01T01:31:54.770Z,99020.53
2022-09-01T01:33:31.162Z,99020.75
2022-09-01T01:35:06.264Z,99021.75
2022-09-01T01:36:41.696Z,99020.38
2022-09-01T01:38:23.084Z,99021.50
2022-09-01T01:39:56.624Z,99025.00
2022-09-01T01:41:34.281Z,99016.22
2022-09-01T01:43:07.708Z,99013.00
2022-09-01T01:44:42.679Z,99015.84
2022-09-01T01:46:19.264Z,99022.53
2022-09-01T01:47:55.830Z,99027.03
2022-09-01T01:49:31.204Z,99018.22
2022-09-01T01:51:06.045Z,99023.59
2022-09-01T01:52:39.330Z,99013.13
2022-09-01T01:54:20.191Z,99016.75
2022-09-01T01:55:54.818Z,99015.81
2022-09-01T01:57:32.017Z,99010.78
2022-09-01T01:59:05.434Z,99010.78
2022-09-01T02:00:44.906Z,99010.16
2022-09-01T02:02:18.653Z,99020.88
2022-09-01T02:03:53.061Z,99012.75
2022-09-01T02:05:29.739Z,99006.16
2022-09-01T02:07:03.163Z,99004.34
2022-09-01T02:08:38.541Z,99011.78
2022-09-01T02:10:12.437Z,99008.97
2022-09-01T02:11:45.990Z,99008.00
2022-09-01T02:13:31.523Z,99011.50
2022-09-01T02:15:07.424Z,99007.88
2022-09-01T02:16:41.383Z,99009.59
2022-09-01T02:18:18.219Z,99010.44
2022-09-01T02:19:57.003Z,99007.66
2022-09-01T02:21:30.887Z,99010.19
2022-09-01T02:23:09.414Z,99015.44
2022-09-01T02:24:48.169Z,99011.94
2022-09-01T02:26:26.461Z,99011.06
2022-09-01T02:28:00.590Z,99007.66
2022-09-01T02:29:40.108Z,99009.59
2022-09-01T02:31:17.040Z,99002.75
2022-09-01T02:32:50.854Z,99004.69
2022-09-01T02:34:25.967Z,99000.28
2022-09-01T02:36:01.718Z,99008.44
2022-09-01T02:37:34.950Z,98999.56
2022-09-01T02:39:08.617Z,98991.88
2022-09-01T02:40:45.550Z,99002.25
2022-09-01T02:42:22.480Z,99006.00
2022-09-01T02:43:54.817Z,99012.97
2022-09-01T02:45:30.031Z,98998.72
2022-09-01T02:47:05.633Z,99004.94
2022-09-01T02:48:46.262Z,98999.78
2022-09-01T02:50:22.627Z,99006.00
2022-09-01T02:52:01.652Z,99008.78
2022-09-01T02:53:37.891Z,99008.19
2022-09-01T02:55:12.019Z,99000.25
2022-09-01T02:56:46.473Z,99009.50
2022-09-01T02:58:20.260Z,99005.22
2022-09-01T02:59:59.763Z,99009.00
2022-09-01T03:01:34.901Z,99008.88
2022-09-01T03:03:09.138Z,99015.84
2022-09-01T03:04:42.917Z,99003.16
2022-09-01T03:06:18.541Z,99009.28
2022-09-01T03:07:57.997Z,99002.19
2022-09-01T03:09:35.238Z,99003.41
2022-09-01T03:11:13.219Z,98997.06
2022-09-01T03:12:48.065Z,99006.09
2022-09-01T03:14:24.355Z,99004.84
2022-09-01T03:15:57.288Z,99005.66
2022-09-01T03:17:31.989Z,99005.66
2022-09-01T03:19:09.065Z,98995.75
2022-09-01T03:20:46.485Z,99015.59
2022-09-01T03:22:18.734Z,99015.66
2022-09-01T03:23:54.386Z,99023.50
2022-09-01T03:25:28.906Z,99016.22
2022-09-01T03:27:02.319Z,99031.56
2022-09-01T03:28:34.550Z,99018.78
2022-09-01T03:30:09.177Z,99019.47
2022-09-01T03:31:42.955Z,99013.13
2022-09-01T03:33:18.917Z,99029.50
2022-09-01T03:34:52.410Z,99031.56
2022-09-01T03:36:26.328Z,99020.63
2022-09-01T03:37:59.362Z,99025.75
2022-09-01T03:39:32.656Z,99024.03
2022-09-01T03:41:07.184Z,99023.94
2022-09-01T03:42:41.696Z,99025.88
2022-09-01T03:44:16.437Z,99020.84
2022-09-01T03:45:50.435Z,99017.19
2022-09-01T03:47:24.306Z,99016.00
2022-09-01T03:49:02.411Z,99012.88
2022-09-01T03:50:41.141Z,99024.00
2022-09-01T03:52:14.839Z,99025.59
2022-09-01T03:53:48.356Z,99026.34
2022-09-01T03:55:24.335Z,99020.34
2022-09-01T03:57:00.056Z,99044.13
2022-09-01T03:58:34.145Z,99044.63
2022-09-01T04:00:13.676Z,99039.81
2022-09-01T04:01:48.075Z,99034.47
2022-09-01T04:03:28.286Z,99040.09
2022-09-01T04:05:07.790Z,99038.91
2022-09-01T04:06:41.814Z,99035.50
2022-09-01T04:08:15.266Z,99039.31
2022-09-01T04:09:48.553Z,99054.34
2022-09-01T04:11:24.359Z,99053.13
2022-09-01T04:12:59.183Z,99055.56
2022-09-01T04:14:32.671Z,99048.28
2022-09-01T04:16:10.553Z,99044.22
2022-09-01T04:18:13.453Z,99055.56
2022-09-01T04:19:47.850Z,99056.81
2022-09-01T04:21:22.655Z,99060.25
2022-09-01T04:22:58.057Z,99066.59
2022-09-01T04:24:33.670Z,99061.97
2022-09-01T04:26:10.285Z,99070.09
2022-09-01T04:27:45.207Z,99063.44
2022-09-01T04:29:27.400Z,99067.59
2022-09-01T04:31:05.908Z,99065.63
2022-09-01T04:32:40.644Z,99066.00
2022-09-01T04:34:14.223Z,99073.06
2022-09-01T04:35:49.764Z,99070.75
2022-09-01T04:37:24.640Z,99074.50
2022-09-01T04:39:10.097Z,99081.59
2022-09-01T04:40:45.611Z,99082.31
2022-09-01T04:42:19.096Z,99081.00
2022-09-01T04:43:57.199Z,99089.59
2022-09-01T04:45:31.920Z,99082.06
2022-09-01T04:47:06.085Z,99085.50
2022-09-01T04:48:42.349Z,99076.00
2022-09-01T04:50:22.185Z,99077.66
2022-09-01T04:52:14.455Z,99075.00
2022-09-01T04:53:49.826Z,99061.22
2022-09-01T04:55:28.805Z,99070.28
2022-09-01T04:57:02.411Z,99064.94
2022-09-01T04:58:36.913Z,99068.13
2022-09-01T05:00:22.421Z,99080.09
2022-09-01T05:01:57.714Z,99080.38
2022-09-01T05:03:32.206Z,99067.94
2022-09-01T05:05:12.711Z,99070.16
2022-09-01T05:06:49.381Z,99068.66
2022-09-01T05:08:25.179Z,99065.97
2022-09-01T05:10:07.033Z,99073.69
2022-09-01T05:12:15.565Z,99067.91
2022-09-01T05:13:57.954Z,99059.94
2022-09-01T05:15:31.915Z,99058.50
2022-09-01T05:17:10.263Z,99045.44
2022-09-01T05:18:47.950Z,99054.75
2022-09-01T05:20:22.178Z,99053.38
2022-09-01T05:21:58.056Z,99050.94
2022-09-01T05:23:32.835Z,99047.13
2022-09-01T05:25:13.515Z,99050.28
2022-09-01T05:26:51.247Z,99052.00
2022-09-01T05:28:25.417Z,99053.97
2022-09-01T05:30:00.850Z,99055.44
2022-09-01T05:31:38.206Z,99053.97
2022-09-01T05:33:11.811Z,99041.16
2022-09-01T05:34:46.227Z,99060.19
2022-09-01T05:36:23.100Z,99065.84
2022-09-01T05:37:59.768Z,99061.53
2022-09-01T05:39:33.147Z,99063.28
2022-09-01T05:41:08.605Z,99067.78
2022-09-01T05:42:42.598Z,99056.91
2022-09-01T05:44:17.197Z,99059.34
2022-09-01T05:46:06.102Z,99057.59
2022-09-01T05:47:42.210Z,99054.66
2022-09-01T05:49:18.986Z,99056.38
2022-09-01T05:50:59.918Z,99053.91
2022-09-01T05:52:35.360Z,99058.25
2022-09-01T05:54:09.467Z,99054.31
2022-09-01T05:55:45.266Z,99056.97
2022-09-01T05:57:35.854Z,99059.09
2022-09-01T05:59:26.546Z,99043.44
2022-09-01T06:01:06.692Z,99068.84
2022-09-01T06:02:41.165Z,99054.50
2022-09-01T06:04:16.298Z,99065.88
2022-09-01T06:05:52.921Z,99066.31
2022-09-01T06:07:28.726Z,99061.06
2022-09-01T06:09:05.225Z,99061.25
2022-09-01T06:10:40.093Z,99060.34
2022-09-01T06:12:18.458Z,99056.84
2022-09-01T06:13:57.187Z,99062.59
2022-09-01T06:15:30.887Z,99059.84
2022-09-01T06:17:06.734Z,99062.34
2022-09-01T06:18:41.290Z,99063.97
2022-09-01T06:20:18.666Z,99059.47
2022-09-01T06:21:52.189Z,99066.56
2022-09-01T06:23:25.832Z,99063.94
2022-09-01T06:25:02.728Z,99065.38
2022-09-01T06:26:42.659Z,99068.38
2022-09-01T06:28:17.313Z,99068.78
2022-09-01T06:29:53.764Z,99077.03
2022-09-01T06:31:34.101Z,99062.34
2022-09-01T06:33:14.394Z,99053.84
2022-09-01T06:34:53.507Z,99050.56
2022-09-01T06:36:26.792Z,99050.09
2022-09-01T06:38:01.953Z,99051.84
2022-09-01T06:40:03.030Z,99037.28
2022-09-01T06:41:38.998Z,99056.31
2022-09-01T06:43:17.435Z,99046.72
2022-09-01T06:44:57.732Z,99035.66
2022-09-01T06:46:33.601Z,99023.91
2022-09-01T06:48:14.298Z,99019.53
2022-09-01T06:49:48.131Z,99025.34
2022-09-01T06:51:27.002Z,99007.66
2022-09-01T06:55:07.919Z,99014.88
2022-09-01T06:56:44.818Z,99002.94
2022-09-01T06:58:25.567Z,99011.47
2022-09-01T07:00:07.848Z,99008.28
2022-09-01T07:01:41.325Z,98996.19
2022-09-01T07:03:15.819Z,98988.16
2022-09-01T07:09:46.920Z,99002.06
2022-09-01T07:13:30.878Z,98985.75
2022-09-01T07:19:01.393Z,98987.84
2022-09-01T07:21:02.847Z,98981.34
2022-09-01T07:23:02.613Z,98973.06
2022-09-01T07:24:31.699Z,98969.09
2022-09-01T07:26:46.767Z,98972.47
2022-09-01T07:28:22.009Z,98965.59
2022-09-01T07:29:58.880Z,98957.56
2022-09-01T07:33:54.019Z,98965.22
2022-09-01T07:35:27.589Z,98962.84
2022-09-01T07:38:47.809Z,98953.13
2022-09-01T07:43:22.369Z,98941.91
2022-09-01T07:45:27.869Z,98945.41
2022-09-01T07:52:52.223Z,98927.53
2022-09-01T07:54:25.724Z,98927.53
2022-09-01T07:56:01.671Z,98925.00
2022-09-01T07:57:35.793Z,98933.78
2022-09-01T07:59:15.206Z,98932.69
2022-09-01T08:01:00.253Z,98926.00
2022-09-01T08:02:36.743Z,98922.31
2022-09-01T08:04:10.487Z,98932.19
2022-09-01T08:05:51.348Z,98920.09
2022-09-01T08:07:24.971Z,98916.09
2022-09-01T08:09:00.950Z,98921.53
2022-09-01T08:10:41.122Z,98909.44
2022-09-01T08:12:14.667Z,98913.47
2022-09-01T08:13:55.619Z,98911.88
2022-09-01T08:19:19.873Z,98901.47
2022-09-01T08:21:22.454Z,98899.91
2022-09-01T08:23:07.427Z,98900.78
2022-09-01T08:24:43.194Z,98902.66
2022-09-01T08:26:18.618Z,98891.63
2022-09-01T08:27:59.724Z,98887.66
2022-09-01T08:29:33.553Z,98902.91
2022-09-01T08:31:11.447Z,98894.91
2022-09-01T08:32:45.892Z,98887.75
2022-09-01T08:34:21.063Z,98881.38
2022-09-01T08:35:55.427Z,98886.03
2022-09-01T08:37:29.629Z,98876.78
2022-09-01T08:39:02.995Z,98877.56
2022-09-01T08:40:38.937Z,98877.94
2022-09-01T08:42:21.915Z,98881.75
2022-09-01T08:44:07.783Z,98874.78
2022-09-01T08:45:48.896Z,98871.78
2022-09-01T08:47:39.375Z,98872.44
2022-09-01T08:49:25.631Z,98878.59
2022-09-01T08:51:34.093Z,98871.19
2022-09-01T08:53:18.892Z,98861.03
2022-09-01T08:54:55.340Z,98858.94
2022-09-01T08:56:29.784Z,98855.56
2022-09-01T08:58:05.941Z,98857.53
2022-09-01T09:00:13.989Z,98864.88
2022-09-01T09:01:59.950Z,98856.69
2022-09-01T09:03:41.922Z,98850.53
2022-09-01T09:05:29.427Z,98848.81
2022-09-01T09:07:13.033Z,98860.41
2022-09-01T09:08:55.155Z,98856.81
2022-09-01T09:10:33.602Z,98842.47
2022-09-01T09:12:31.105Z,98851.44
2022-09-01T09:14:12.603Z,98845.09
2022-09-01T09:15:53.043Z,98844.25
2022-09-01T09:17:31.457Z,98842.97
2022-09-01T09:19:11.090Z,98842.31
2022-09-01T09:20:45.653Z,98839.50
2022-09-01T09:22:21.604Z,98845.44
2022-09-01T09:23:59.753Z,98838.09
2022-09-01T09:25:34.389Z,98837.41
2022-09-01T09:27:09.771Z,98841.38
2022-09-01T09:28:44.336Z,98824.88
2022-09-01T09:30:23.247Z,98829.44
2022-09-01T09:32:39.468Z,98830.34
2022-09-01T09:34:02.664Z,98823.56
2022-09-01T09:35:39.114Z,98821.44
2022-09-01T09:37:23.543Z,98818.91
2022-09-01T09:39:20.856Z,98821.84
2022-09-01T09:41:17.316Z,98810.38
2022-09-01T09:43:05.695Z,98810.78
2022-09-01T09:44:44.205Z,98815.78
2022-09-01T09:46:27.631Z,98818.59
2022-09-01T09:48:02.313Z,98798.03
2022-09-01T09:49:42.354Z,98821.03
2022-09-01T09:51:22.642Z,98803.03
2022-09-01T09:53:15.437Z,98810.13
2022-09-01T09:55:05.766Z,98797.09
2022-09-01T09:56:41.645Z,98794.53
2022-09-01T09:58:15.082Z,98809.84
2022-09-01T09:59:59.138Z,98799.84
2022-09-01T10:01:34.539Z,98803.97
2022-09-01T10:03:14.360Z,98788.31
2022-09-01T10:04:47.738Z,98793.59
2022-09-01T10:06:33.337Z,98792.47
2022-09-01T10:08:10.546Z,98799.63
2022-09-01T10:09:43.772Z,98800.53
2022-09-01T10:11:35.618Z,98793.25
2022-09-01T10:13:13.830Z,98790.28
2022-09-01T10:14:53.513Z,98786.25
2022-09-01T10:16:32.075Z,98800.03
2022-09-01T10:20:08.067Z,98783.16
2022-09-01T10:21:46.671Z,98785.97
2022-09-01T10:23:21.298Z,98777.97
2022-09-01T10:24:55.110Z,98781.63
2022-09-01T10:26:34.098Z,98780.22
2022-09-01T10:28:13.179Z,98773.50
2022-09-01T10:30:12.031Z,98779.91
2022-09-01T10:31:45.362Z,98781.59
2022-09-01T10:33:22.038Z,98778.78
2022-09-01T10:34:59.745Z,98772.53
2022-09-01T10:36:34.520Z,98767.56
2022-09-01T10:38:11.957Z,98767.94
2022-09-01T10:40:29.865Z,98762.69
2022-09-01T10:42:07.757Z,98769.69
2022-09-01T10:43:43.756Z,98771.69
2022-09-01T10:45:32.128Z,98768.56
2022-09-01T10:47:14.743Z,98764.34
2022-09-01T10:48:54.989Z,98775.53
2022-09-01T10:50:35.372Z,98765.66
2022-09-01T10:52:13.217Z,98771.19
2022-09-01T10:53:48.655Z,98758.50
2022-09-01T10:55:26.618Z,98765.59
2022-09-01T10:57:03.946Z,98755.50
2022-09-01T11:01:11.264Z,98751.91
2022-09-01T11:03:31.404Z,98750.66
2022-09-01T11:05:22.442Z,98748.97
2022-09-01T11:07:13.899Z,98742.69
2022-09-01T11:08:58.051Z,98748.59
2022-09-01T11:10:53.587Z,98745.75
2022-09-01T11:12:45.387Z,98743.19
2022-09-01T11:14:22.907Z,98733.78
2022-09-01T11:16:00.326Z,98724.69
2022-09-01T11:17:37.478Z,98726.84
2022-09-01T11:19:44.462Z,98735.63
2022-09-01T11:21:19.232Z,98729.66
2022-09-01T11:23:03.567Z,98733.25
2022-09-01T11:25:12.636Z,98733.53
2022-09-01T11:26:49.040Z,98735.88
2022-09-01T11:28:39.268Z,98727.81
2022-09-01T11:30:20.292Z,98730.81
2022-09-01T11:31:53.942Z,98741.59
2022-09-01T11:33:47.878Z,98738.47
2022-09-01T11:35:23.930Z,98726.75
2022-09-01T11:37:01.290Z,98745.03
2022-09-01T11:38:43.856Z,98727.81
2022-09-01T11:40:23.988Z,98734.09
2022-09-01T11:42:04.264Z,98732.41
2022-09-01T11:43:38.114Z,98736.66
2022-09-01T11:45:21.650Z,98725.41
2022-09-01T11:47:03.299Z,98721.28
2022-09-01T11:48:37.976Z,98728.47
2022-09-01T11:50:20.709Z,98731.03
2022-09-01T11:51:53.279Z,98725.63
2022-09-01T11:53:28.384Z,98730.19
2022-09-01T11:55:01.679Z,98727.19
2022-09-01T11:56:35.411Z,98717.97
2022-09-01T11:58:17.678Z,98716.25
2022-09-01T11:59:52.073Z,98704.13
2022-09-01T12:01:33.843Z,98712.38
2022-09-01T12:03:24.932Z,98706.00
2022-09-01T12:04:59.273Z,98719.41
2022-09-01T12:06:32.530Z,98711.75
2022-09-01T12:08:14.052Z,98707.47
2022-09-01T12:09:49.197Z,98705.19
2022-09-01T12:11:27.923Z,98699.97
2022-09-01T12:13:07.176Z,98696.91
2022-09-01T12:15:04.467Z,98693.41
2022-09-01T12:16:38.197Z,98695.78
2022-09-01T12:18:19.235Z,98696.50
2022-09-01T12:19:51.570Z,98697.81
2022-09-01T12:21:28.585Z,98694.84
2022-09-01T12:23:02.916Z,98696.03
2022-09-01T12:24:37.145Z,98691.56
2022-09-01T12:26:14.352Z,98695.06
2022-09-01T12:27:47.852Z,98692.06
2022-09-01T12:29:23.405Z,98690.72
2022-09-01T12:30:59.321Z,98698.28
2022-09-01T12:32:32.765Z,98708.66
2022-09-01T12:34:06.015Z,98708.78
2022-09-01T12:35:39.508Z,98724.72
2022-09-01T12:37:22.252Z,98724.09
2022-09-01T12:38:56.815Z,98717.59
2022-09-01T12:40:34.268Z,98725.06
2022-09-01T12:42:11.440Z,98721.31
2022-09-01T12:43:45.598Z,98722.13
2022-09-01T12:45:44.124Z,98720.63
2022-09-01T12:47:50.781Z,98723.31
2022-09-01T12:49:28.807Z,98719.78
2022-09-01T12:51:04.321Z,98729.72
2022-09-01T12:52:46.686Z,98725.22
2022-09-01T12:54:26.415Z,98729.94
2022-09-01T12:56:21.042Z,98742.38
2022-09-01T12:57:56.974Z,98754.75
2022-09-01T12:59:37.321Z,98756.44
2022-09-01T13:01:27.768Z,98771.63
2022-09-01T13:03:14.301Z,98775.09
2022-09-01T13:04:47.819Z,98792.69
2022-09-01T13:06:21.122Z,98788.75
2022-09-01T13:07:56.063Z,98793.16
2022-09-01T13:09:30.228Z,98791.66
2022-09-01T13:11:05.955Z,98804.13
2022-09-01T13:12:42.345Z,98800.25
2022-09-01T13:14:15.925Z,98815.13
2022-09-01T13:15:51.464Z,98812.88
2022-09-01T13:17:24.895Z,98820.34
2022-09-01T13:19:21.819Z,98827.16
2022-09-01T13:20:54.662Z,98817.53
2022-09-01T13:22:28.162Z,98824.63
2022-09-01T13:24:02.115Z,98851.19
2022-09-01T13:25:36.122Z,98855.03
2022-09-01T13:27:26.183Z,98857.88
2022-09-01T13:29:00.747Z,98848.50
2022-09-01T13:30:34.109Z,98858.56
2022-09-01T13:32:24.517Z,98855.03
2022-09-01T13:34:22.111Z,98847.03
2022-09-01T13:35:54.249Z,98864.09
2022-09-01T13:37:27.602Z,98861.53
2022-09-01T13:39:01.084Z,98867.06
2022-09-01T13:40:35.801Z,98872.03
2022-09-01T13:42:09.249Z,98863.06
2022-09-01T13:45:25.196Z,98860.91
2022-09-01T13:47:00.520Z,98864.75
2022-09-01T13:51:14.027Z,98868.28
2022-09-01T13:52:23.910Z,98875.72
2022-09-01T13:53:57.476Z,98843.03
2022-09-01T13:55:33.223Z,98850.28
2022-09-01T13:57:07.797Z,98859.50
2022-09-01T13:58:41.237Z,98850.09
2022-09-01T14:00:19.719Z,98851.22
2022-09-01T14:01:53.222Z,98854.31
2022-09-01T14:03:26.602Z,98859.44
2022-09-01T14:05:00.449Z,98852.34
2022-09-01T14:06:35.201Z,98854.88
2022-09-01T14:08:09.377Z,98829.19
2022-09-01T14:09:42.771Z,98857.19
2022-09-01T14:11:20.057Z,98860.03
2022-09-01T14:12:54.102Z,98861.34
2022-09-01T14:15:09.847Z,98863.72
2022-09-01T14:16:20.882Z,98858.59
2022-09-01T14:17:56.398Z,98864.88
2022-09-01T14:19:31.284Z,98870.28
2022-09-01T14:21:04.859Z,98859.19
2022-09-01T14:22:40.362Z,98861.44
2022-09-01T14:24:13.775Z,98864.28
2022-09-01T14:25:48.968Z,98868.53
2022-09-01T14:27:22.699Z,98860.31
2022-09-01T14:28:56.161Z,98875.66
2022-09-01T14:30:32.116Z,98871.41
2022-09-01T14:32:08.088Z,98864.88
2022-09-01T14:33:42.338Z,98869.41
2022-09-01T14:35:17.805Z,98860.31
2022-09-01T14:36:53.495Z,98847.50
2022-09-01T14:38:28.254Z,98862.41
2022-09-01T14:40:00.967Z,98869.81
2022-09-01T14:41:34.444Z,98875.34
2022-09-01T14:43:10.761Z,98866.22
2022-09-01T14:44:44.733Z,98861.53
2022-09-01T14:46:19.451Z,98863.63
2022-09-01T14:47:55.453Z,98866.72
2022-09-01T14:49:33.689Z,98860.50
2022-09-01T14:51:07.908Z,98865.91
2022-09-01T14:52:41.347Z,98856.41
2022-09-01T14:54:16.023Z,98868.47
2022-09-01T14:55:51.457Z,98855.09
2022-09-01T14:57:31.408Z,98863.06
2022-09-01T14:59:11.106Z,98860.22
2022-09-01T15:00:45.321Z,98858.19
2022-09-01T15:02:18.866Z,98855.06
2022-09-01T15:03:52.583Z,98851.06
2022-09-01T15:05:26.505Z,98849.09
2022-09-01T15:07:00.090Z,98854.50
2022-09-01T15:08:33.465Z,98850.16
2022-09-01T15:10:11.219Z,98857.69
2022-09-01T15:11:49.459Z,98849.81
2022-09-01T15:13:22.785Z,98848.34
2022-09-01T15:14:56.139Z,98847.53
2022-09-01T15:16:29.883Z,98859.88
2022-09-01T15:18:03.993Z,98842.94
2022-09-01T15:19:37.335Z,98851.47
2022-09-01T15:21:19.963Z,98846.44
2022-09-01T15:22:53.756Z,98845.44
2022-09-01T15:24:27.030Z,98844.13
2022-09-01T15:26:02.002Z,98841.69
2022-09-01T15:27:38.306Z,98834.25
2022-09-01T15:29:15.221Z,98847.31
2022-09-01T15:30:48.755Z,98836.88
2022-09-01T15:32:27.764Z,98844.53
2022-09-01T15:34:03.919Z,98838.97
2022-09-01T15:35:37.473Z,98844.13
2022-09-01T15:37:10.876Z,98836.69
2022-09-01T15:38:44.497Z,98836.38
2022-09-01T15:40:19.009Z,98835.69
2022-09-01T15:41:54.011Z,98831.56
2022-09-01T15:43:28.760Z,98828.72
2022-09-01T15:45:02.360Z,98838.69
2022-09-01T15:46:39.160Z,98833.28
2022-09-01T15:48:12.682Z,98836.38
2022-09-01T15:49:46.111Z,98844.84
2022-09-01T15:51:31.085Z,98843.94
2022-09-01T15:53:08.593Z,98832.81
2022-09-01T15:54:42.114Z,98836.19
2022-09-01T15:56:16.887Z,98824.53
2022-09-01T15:57:55.052Z,98824.06
2022-09-01T15:59:29.246Z,98828.47
2022-09-01T16:01:02.850Z,98819.66
2022-09-01T16:02:36.155Z,98826.75
2022-09-01T16:04:17.360Z,98825.22
2022-09-01T16:05:52.026Z,98825.69
2022-09-01T16:07:26.623Z,98822.00
2022-09-01T16:09:00.106Z,98827.72
2022-09-01T16:10:35.082Z,98825.16
2022-09-01T16:12:10.272Z,98833.72
2022-09-01T16:13:45.135Z,98823.22
2022-09-01T16:15:20.668Z,98836.06
2022-09-01T16:17:00.423Z,98825.25
2022-09-01T16:18:41.762Z,98832.34
2022-09-01T16:20:20.915Z,98830.66
2022-09-01T16:22:07.106Z,98827.25
2022-09-01T16:23:44.294Z,98838.41
2022-09-01T16:25:24.049Z,98834.13
2022-09-01T16:26:58.268Z,98832.44
2022-09-01T16:28:35.811Z,98829.00
2022-09-01T16:30:14.124Z,98817.63
2022-09-01T16:31:52.621Z,98820.28
2022-09-01T16:33:25.926Z,98824.00
2022-09-01T16:35:01.719Z,98829.53
2022-09-01T16:36:40.282Z,98828.63
2022-09-01T16:38:23.015Z,98842.56
2022-09-01T16:40:02.758Z,98840.66
2022-09-01T16:41:48.400Z,98837.16
2022-09-01T16:43:26.828Z,98846.41
2022-09-01T16:45:12.497Z,98847.59
2022-09-01T16:46:58.070Z,98848.16
2022-09-01T16:48:40.881Z,98855.91
2022-09-01T16:50:28.600Z,98850.22
2022-09-01T16:52:06.960Z,98857.22
2022-09-01T16:53:56.158Z,98870.72
2022-09-01T16:55:36.135Z,98871.88
2022-09-01T16:57:18.024Z,98859.09
2022-09-01T16:59:03.285Z,98867.75
2022-09-01T17:00:45.286Z,98863.06
2022-09-01T17:02:35.991Z,98865.34
2022-09-01T17:04:23.725Z,98858.81
2022-09-01T17:06:11.831Z,98863.94
2022-09-01T17:07:52.786Z,98864.22
2022-09-01T17:09:33.710Z,98864.53
2022-09-01T17:11:11.018Z,98865.84
2022-09-01T17:12:49.139Z,98865.13
2022-09-01T17:14:34.637Z,98865.69
2022-09-01T17:16:12.286Z,98866.03
2022-09-01T17:17:54.664Z,98868.72
2022-09-01T17:19:29.199Z,98869.97
2022-09-01T17:21:09.409Z,98879.09
2022-09-01T17:22:50.285Z,98874.28
2022-09-01T17:24:35.852Z,98881.38
2022-09-01T17:26:18.397Z,98878.97
2022-09-01T17:27:58.225Z,98890.50
2022-09-01T17:29:36.570Z,98890.78
2022-09-01T17:31:14.571Z,98888.91
2022-09-01T17:33:08.822Z,98894.47
2022-09-01T17:35:00.748Z,98898.44
2022-09-01T17:36:46.827Z,98891.63
2022-09-01T17:38:31.883Z,98897.03
2022-09-01T17:40:15.793Z,98906.69
2022-09-01T17:41:55.843Z,98906.69
2022-09-01T17:43:43.371Z,98898.16
2022-09-01T17:45:29.106Z,98912.09
2022-09-01T17:47:12.738Z,98912.09
2022-09-01T17:48:53.208Z,98912.09
2022-09-01T17:50:39.763Z,98912.38
2022-09-01T17:52:19.608Z,98910.25
2022-09-01T17:54:00.205Z,98914.78
2022-09-01T17:55:43.545Z,98910.50
2022-09-01T17:57:24.930Z,98912.38
2022-09-01T17:59:04.987Z,98917.78
2022-09-01T18:00:44.614Z,98907.25
2022-09-01T18:02:46.116Z,98907.53
2022-09-01T18:04:48.206Z,98907.81
2022-09-01T18:06:30.517Z,98898.19
2022-09-01T18:08:25.827Z,98892.22
2022-09-01T18:10:06.103Z,98899.88
2022-09-01T18:11:47.977Z,98897.03
2022-09-01T18:13:30.980Z,98903.00
2022-09-01T18:15:23.937Z,98909.25
2022-09-01T18:17:04.386Z,98909.81
2022-09-01T18:18:40.691Z,98916.34
2022-09-01T18:20:22.943Z,98915.78
2022-09-01T18:21:58.944Z,98929.00
2022-09-01T18:23:37.299Z,98912.38
2022-09-01T18:25:18.686Z,98927.13
2022-09-01T18:26:53.246Z,98925.16
2022-09-01T18:28:26.629Z,98933.78
2022-09-01T18:30:01.423Z,98939.91
2022-09-01T18:31:57.354Z,98931.34
2022-09-01T18:33:39.952Z,98932.16
2022-09-01T18:35:25.264Z,98934.72
2022-09-01T18:37:04.996Z,98929.59
2022-09-01T18:38:46.152Z,98926.19
2022-09-01T18:40:26.077Z,98926.19
2022-09-01T18:42:12.360Z,98917.53
2022-09-01T18:43:51.400Z,98928.31
2022-09-01T18:45:34.374Z,98924.63
2022-09-01T18:47:13.108Z,98928.75
2022-09-01T18:49:00.316Z,98907.44
2022-09-01T18:50:45.662Z,98930.88
2022-09-01T18:52:32.750Z,98940.69
2022-09-01T18:54:10.961Z,98945.19
2022-09-01T18:55:52.436Z,98946.34
2022-09-01T18:57:35.279Z,98935.03
2022-09-01T18:59:21.047Z,98933.03
2022-09-01T19:01:03.101Z,98927.38
2022-09-01T19:02:58.279Z,98934.19
2022-09-01T19:04:34.057Z,98938.97
2022-09-01T19:06:20.184Z,98939.81
2022-09-01T19:08:02.547Z,98937.88
2022-09-01T19:09:41.022Z,98927.47
2022-09-01T19:11:24.379Z,98940.31
2022-09-01T19:13:05.399Z,98947.13
2022-09-01T19:14:47.524Z,98946.97
2022-09-01T19:16:36.425Z,98951.50
2022-09-01T19:18:19.863Z,98947.25
2022-09-01T19:19:58.555Z,98941.56
2022-09-01T19:21:34.494Z,98934.59
2022-09-01T19:23:13.870Z,98937.28
2022-09-01T19:24:52.868Z,98934.84
2022-09-01T19:26:28.312Z,98940.25
2022-09-01T19:28:07.248Z,98931.72
2022-09-01T19:29:48.188Z,98934.09
2022-09-01T19:31:27.263Z,98942.03
2022-09-01T19:33:03.756Z,98946.28
2022-09-01T19:34:41.440Z,98939.19
2022-09-01T19:36:20.470Z,98945.13
2022-09-01T19:37:55.262Z,98943.28
2022-09-01T19:39:31.988Z,98932.38
2022-09-01T19:41:13.088Z,98942.28
2022-09-01T19:42:53.553Z,98934.34
2022-09-01T19:44:35.870Z,98937.31
2022-09-01T19:46:22.440Z,98927.66
2022-09-01T19:48:02.839Z,98933.78
2022-09-01T19:49:45.300Z,98931.91
2022-09-01T19:51:25.933Z,98940.31
2022-09-01T19:53:06.312Z,98935.19
2022-09-01T19:54:52.070Z,98939.13
2022-09-01T19:56:30.349Z,98942.09
2022-09-01T19:58:07.993Z,98940.81